Time;durP1;ratioP1;P1;durP2;ratioP2;P2;SDS_P1;SDS_P2;PMS_P1;PMS_P2;Temp;Humidity;BMP_temperature;BMP_pressure;BME280_temperature;BME280_humidity;BME280_pressure;Samples;Min_cycle;Max_cycle;Signal;HPM_P1;HPM_P2
2023/10/19 00:00:40;;;;;;;9.37;7.73;;;;;;;;;;5001944;28;20714;-73
2023/10/19 00:03:08;;;;;;;7.70;7.00;;;;;;;;;;4997364;28;20695;-71
2023/10/19 00:05:34;;;;;;;8.40;7.60;;;;;;;;;;4994045;28;20687;-73
2023/10/19 00:08:02;;;;;;;8.27;6.77;;;;;;;;;;4987381;28;20217;-73
2023/10/19 00:10:34;;;;;;;7.93;7.20;;;;;;;;;;4995593;28;20221;-73
2023/10/19 00:13:05;;;;;;;8.00;7.20;;;;;;;;;;4986603;28;20222;-72
2023/10/19 00:15:40;;;;;;;8.40;7.60;;;;;;;;;;4982517;28;20240;-73
2023/10/19 00:23:14;;;;;;;9.00;8.10;;;;;;;;;;5001607;28;20225;-72
2023/10/19 00:25:42;;;;;;;8.13;7.50;;;;;;;;;;4966609;28;20818;-73
2023/10/19 00:28:08;;;;;;;8.30;7.60;;;;;;;;;;4970081;28;20222;-72
2023/10/19 00:30:42;;;;;;;9.17;8.10;;;;;;;;;;4999958;28;20224;-73
2023/10/19 00:33:19;;;;;;;8.97;8.07;;;;;;;;;;4999474;28;20222;-72
2023/10/19 00:35:57;;;;;;;8.50;7.77;;;;;;;;;;4999118;28;20213;-74
2023/10/19 00:40:53;;;;;;;8.73;7.83;;;;;;;;;;4983131;28;20321;-72
2023/10/19 00:43:32;;;;;;;8.37;7.67;;;;;;;;;;4970180;28;20225;-73
2023/10/19 00:46:01;;;;;;;8.90;8.00;;;;;;;;;;4998158;28;20221;-72
2023/10/19 00:48:27;;;;;;;8.70;7.90;;;;;;;;;;4990026;28;20213;-72
2023/10/19 00:51:22;;;;;;;8.83;7.93;;;;;;;;;;4968507;28;20216;-73
2023/10/19 00:53:50;;;;;;;9.03;8.13;;;;;;;;;;4975320;28;20268;-73
2023/10/19 00:56:20;;;;;;;12.63;8.90;;;;;;;;;;4991085;28;20235;-73
2023/10/19 00:58:53;;;;;;;9.27;8.40;;;;;;;;;;4968361;28;20218;-72
2023/10/19 01:01:28;;;;;;;10.43;8.70;;;;;;;;;;4972467;28;20272;-71
2023/10/19 01:03:56;;;;;;;8.67;7.80;;;;;;;;;;4983613;28;20217;-72
2023/10/19 01:06:23;;;;;;;9.07;7.93;;;;;;;;;;4966235;28;20786;-73
2023/10/19 01:08:55;;;;;;;8.57;7.77;;;;;;;;;;4968470;28;20312;-73
2023/10/19 01:11:28;;;;;;;9.60;8.67;;;;;;;;;;4974338;28;20220;-73
2023/10/19 01:13:59;;;;;;;9.20;8.40;;;;;;;;;;4976451;28;20590;-73
2023/10/19 01:16:26;;;;;;;9.90;8.80;;;;;;;;;;4991255;28;20654;-72
2023/10/19 01:18:59;;;;;;;9.70;8.70;;;;;;;;;;4966937;28;20252;-73
2023/10/19 01:21:37;;;;;;;10.60;9.70;;;;;;;;;;4989848;28;20232;-73
2023/10/19 01:24:16;;;;;;;9.87;8.97;;;;;;;;;;4984594;28;20314;-74
2023/10/19 01:26:47;;;;;;;10.33;9.43;;;;;;;;;;4975768;28;20283;-73
2023/10/19 01:29:16;;;;;;;10.70;9.60;;;;;;;;;;4986090;28;20243;-73
2023/10/19 01:31:55;;;;;;;10.63;9.63;;;;;;;;;;4983544;28;20232;-74
2023/10/19 01:34:26;;;;;;;10.53;9.53;;;;;;;;;;4998930;28;20225;-74
2023/10/19 01:36:55;;;;;;;11.43;10.17;;;;;;;;;;4983613;28;20208;-73
2023/10/19 01:39:25;;;;;;;11.70;10.60;;;;;;;;;;4965885;28;20753;-73
2023/10/19 01:41:53;;;;;;;11.30;10.40;;;;;;;;;;5000317;28;20224;-73
2023/10/19 01:44:20;;;;;;;12.33;11.03;;;;;;;;;;4969550;28;20240;-73
2023/10/19 01:46:51;;;;;;;11.00;10.00;;;;;;;;;;4981277;28;20246;-72
2023/10/19 01:49:26;;;;;;;11.63;10.73;;;;;;;;;;4967891;28;20316;-73
2023/10/19 01:51:54;;;;;;;12.53;11.33;;;;;;;;;;4981607;28;20229;-74
2023/10/19 01:54:25;;;;;;;11.80;10.53;;;;;;;;;;4969813;28;20220;-73
2023/10/19 01:56:56;;;;;;;12.03;10.93;;;;;;;;;;4998003;28;20253;-73
2023/10/19 01:59:27;;;;;;;13.30;11.87;;;;;;;;;;4996087;28;20252;-73
2023/10/19 02:01:54;;;;;;;15.77;12.13;;;;;;;;;;4970696;28;20229;-73
2023/10/19 02:04:21;;;;;;;12.20;11.10;;;;;;;;;;4966155;28;20247;-73
2023/10/19 02:06:48;;;;;;;13.10;11.87;;;;;;;;;;4990881;28;20614;-73
2023/10/19 02:11:47;;;;;;;13.30;12.00;;;;;;;;;;4985505;28;20654;-73
2023/10/19 02:14:20;;;;;;;13.47;12.07;;;;;;;;;;4984262;28;20303;-73
2023/10/19 02:16:52;;;;;;;13.80;12.50;;;;;;;;;;4965901;28;20769;-73
2023/10/19 02:19:22;;;;;;;16.83;11.73;;;;;;;;;;4974338;28;20260;-73
2023/10/19 02:22:04;;;;;;;13.20;12.00;;;;;;;;;;5001832;28;20682;-73
2023/10/19 02:24:30;;;;;;;14.13;12.43;;;;;;;;;;4982992;28;20221;-72
2023/10/19 02:27:00;;;;;;;14.13;12.83;;;;;;;;;;4984490;28;20230;-73
2023/10/19 02:29:26;;;;;;;13.23;11.83;;;;;;;;;;4975508;28;20327;-73
2023/10/19 02:31:55;;;;;;;13.73;12.50;;;;;;;;;;4984868;28;20217;-73
2023/10/19 02:34:23;;;;;;;14.20;13.00;;;;;;;;;;4972435;28;20224;-73
2023/10/19 02:36:51;;;;;;;13.23;11.93;;;;;;;;;;4981679;28;20242;-73
2023/10/19 02:39:19;;;;;;;15.47;13.63;;;;;;;;;;4990581;23;20735;-77
2023/10/19 02:41:48;;;;;;;14.80;13.50;;;;;;;;;;4950212;28;20227;-77
2023/10/19 02:46:47;;;;;;;15.93;13.83;;;;;;;;;;4973526;28;20339;-75
2023/10/19 02:49:29;;;;;;;15.63;14.03;;;;;;;;;;4965224;28;20223;-76
2023/10/19 02:52:02;;;;;;;16.07;14.40;;;;;;;;;;4962370;28;20217;-76
2023/10/19 02:54:32;;;;;;;15.87;14.40;;;;;;;;;;4985975;28;20226;-76
2023/10/19 02:56:58;;;;;;;16.63;14.93;;;;;;;;;;4974798;28;20569;-78
2023/10/19 02:59:28;;;;;;;17.50;15.80;;;;;;;;;;4954956;28;20225;-76
2023/10/19 03:02:01;;;;;;;17.87;15.03;;;;;;;;;;4971694;28;20650;-77
2023/10/19 03:04:49;;;;;;;16.43;14.87;;;;;;;;;;4990432;28;20923;-76
2023/10/19 03:07:15;;;;;;;17.13;15.50;;;;;;;;;;4966120;28;20277;-77
2023/10/19 03:09:57;;;;;;;17.53;15.83;;;;;;;;;;4963087;28;20235;-77
2023/10/19 03:12:26;;;;;;;17.93;16.00;;;;;;;;;;4963907;28;20225;-77
2023/10/19 03:14:52;;;;;;;17.93;16.30;;;;;;;;;;4973053;28;20229;-77
2023/10/19 03:17:18;;;;;;;19.10;17.10;;;;;;;;;;4964367;28;20287;-76
2023/10/19 03:19:48;;;;;;;19.33;17.33;;;;;;;;;;4988418;28;20232;-77
2023/10/19 03:22:17;;;;;;;19.57;17.57;;;;;;;;;;4993934;28;20213;-76
2023/10/19 03:24:45;;;;;;;18.43;16.53;;;;;;;;;;4998730;28;20237;-76
2023/10/19 03:27:26;;;;;;;18.73;17.03;;;;;;;;;;4973696;28;20221;-79
2023/10/19 03:29:55;;;;;;;20.63;18.50;;;;;;;;;;4981257;28;20223;-79
2023/10/19 03:32:32;;;;;;;19.37;17.67;;;;;;;;;;4947318;28;20254;-79
2023/10/19 03:35:03;;;;;;;19.93;18.03;;;;;;;;;;4988290;28;20221;-79
2023/10/19 03:37:30;;;;;;;21.70;18.97;;;;;;;;;;4971387;28;20229;-77
2023/10/19 03:39:58;;;;;;;20.00;18.20;;;;;;;;;;4991380;28;20240;-79
2023/10/19 03:42:33;;;;;;;22.83;19.83;;;;;;;;;;4969395;28;20686;-79
2023/10/19 03:45:12;;;;;;;22.47;19.43;;;;;;;;;;4964746;28;20216;-79
2023/10/19 03:47:38;;;;;;;23.17;20.67;;;;;;;;;;4984976;28;20702;-78
2023/10/19 03:50:06;;;;;;;22.03;19.93;;;;;;;;;;4965756;28;20656;-77
2023/10/19 03:52:37;;;;;;;22.40;20.40;;;;;;;;;;4975052;28;20360;-79
2023/10/19 03:55:11;;;;;;;23.67;21.17;;;;;;;;;;4962932;28;20238;-79
2023/10/19 03:57:46;;;;;;;24.27;21.67;;;;;;;;;;4985930;28;20713;-79
2023/10/19 04:03:58;;;;;;;22.60;20.37;;;;;;;;;;4996023;28;20236;-79
2023/10/19 04:06:24;;;;;;;24.53;22.03;;;;;;;;;;4994746;28;20230;-79
2023/10/19 04:08:55;;;;;;;24.43;22.03;;;;;;;;;;4995751;28;20220;-78
2023/10/19 04:11:32;;;;;;;24.40;22.10;;;;;;;;;;5002477;28;20221;-79
2023/10/19 04:14:03;;;;;;;25.10;22.57;;;;;;;;;;4996369;28;20225;-79
2023/10/19 04:16:31;;;;;;;25.43;23.17;;;;;;;;;;4995633;28;20226;-79
2023/10/19 04:18:58;;;;;;;24.67;22.27;;;;;;;;;;4997987;28;20375;-78
2023/10/19 04:21:23;;;;;;;26.53;23.83;;;;;;;;;;4990240;28;20261;-78
2023/10/19 04:23:54;;;;;;;24.20;21.73;;;;;;;;;;4998069;28;20282;-80
2023/10/19 04:26:24;;;;;;;25.10;22.50;;;;;;;;;;4982112;28;20234;-79
2023/10/19 04:28:52;;;;;;;26.57;23.97;;;;;;;;;;4949429;28;20253;-77
2023/10/19 04:31:18;;;;;;;26.00;23.53;;;;;;;;;;4988857;28;20573;-78
2023/10/19 04:33:47;;;;;;;28.57;25.17;;;;;;;;;;4994184;28;20639;-78
2023/10/19 04:36:14;;;;;;;27.47;24.73;;;;;;;;;;4964189;28;20221;-77
2023/10/19 04:38:39;;;;;;;28.20;25.47;;;;;;;;;;4963724;28;20233;-78
2023/10/19 04:41:27;;;;;;;30.50;25.87;;;;;;;;;;4973960;28;20227;-78
2023/10/19 04:43:54;;;;;;;27.10;24.40;;;;;;;;;;4982152;28;20672;-78
2023/10/19 04:46:22;;;;;;;28.50;25.60;;;;;;;;;;4978778;28;20706;-78
2023/10/19 04:48:49;;;;;;;27.27;24.57;;;;;;;;;;4983873;28;20707;-78
2023/10/19 04:51:14;;;;;;;28.27;25.53;;;;;;;;;;4993207;28;20266;-77
2023/10/19 04:53:42;;;;;;;28.13;25.13;;;;;;;;;;4996751;28;20229;-77
2023/10/19 04:56:12;;;;;;;29.03;26.07;;;;;;;;;;4981566;28;20213;-77
2023/10/19 04:58:38;;;;;;;29.10;26.40;;;;;;;;;;4962691;28;20309;-78
2023/10/19 05:01:06;;;;;;;29.77;26.73;;;;;;;;;;4976667;28;20224;-79
2023/10/19 05:03:32;;;;;;;30.73;26.60;;;;;;;;;;4984998;28;20229;-80
2023/10/19 05:05:58;;;;;;;29.03;26.23;;;;;;;;;;4997891;28;20241;-79
2023/10/19 05:08:25;;;;;;;27.67;25.10;;;;;;;;;;4983982;28;20236;-79
2023/10/19 05:10:55;;;;;;;28.40;25.40;;;;;;;;;;4996396;28;20233;-79
2023/10/19 05:13:26;;;;;;;29.40;26.70;;;;;;;;;;4985952;28;20333;-76
2023/10/19 05:15:54;;;;;;;28.33;25.63;;;;;;;;;;4981519;28;20719;-79
2023/10/19 05:18:23;;;;;;;28.77;25.83;;;;;;;;;;4975241;28;20205;-78
2023/10/19 05:20:55;;;;;;;28.87;26.07;;;;;;;;;;4978725;28;20238;-78
2023/10/19 05:23:21;;;;;;;28.93;26.17;;;;;;;;;;4975436;28;20221;-76
2023/10/19 05:25:54;;;;;;;28.73;26.03;;;;;;;;;;4989531;28;20234;-78
2023/10/19 05:28:24;;;;;;;30.23;27.33;;;;;;;;;;4978443;28;20222;-78
2023/10/19 05:31:04;;;;;;;30.37;27.30;;;;;;;;;;5007995;28;20249;-77
2023/10/19 05:33:29;;;;;;;28.37;25.60;;;;;;;;;;4988305;28;20226;-78
2023/10/19 05:36:01;;;;;;;30.60;27.67;;;;;;;;;;4962895;28;20232;-78
2023/10/19 05:38:27;;;;;;;31.17;28.00;;;;;;;;;;4971393;28;20626;-77
2023/10/19 05:40:52;;;;;;;30.23;27.33;;;;;;;;;;4991177;28;20246;-78
2023/10/19 05:43:18;;;;;;;31.27;27.83;;;;;;;;;;4960053;28;20226;-77
2023/10/19 05:45:49;;;;;;;30.10;26.87;;;;;;;;;;4986629;28;20248;-78
2023/10/19 05:48:20;;;;;;;32.73;29.47;;;;;;;;;;4989367;28;20593;-77
2023/10/19 05:50:49;;;;;;;30.23;27.23;;;;;;;;;;4944541;28;20248;-79
2023/10/19 05:53:18;;;;;;;29.80;26.70;;;;;;;;;;4996731;28;20225;-78
2023/10/19 05:55:49;;;;;;;30.33;27.53;;;;;;;;;;4995392;28;20710;-79
2023/10/19 05:58:17;;;;;;;30.20;27.23;;;;;;;;;;4975813;28;20231;-77
2023/10/19 06:00:46;;;;;;;30.90;27.93;;;;;;;;;;4997948;28;20235;-77
2023/10/19 06:03:11;;;;;;;29.13;26.23;;;;;;;;;;5003355;28;20221;-79
2023/10/19 06:05:40;;;;;;;29.07;26.33;;;;;;;;;;4973931;28;20233;-78
2023/10/19 06:08:05;;;;;;;28.40;25.70;;;;;;;;;;4964482;28;20760;-78
2023/10/19 06:10:32;;;;;;;28.53;25.83;;;;;;;;;;4974573;28;20237;-78
2023/10/19 06:12:57;;;;;;;28.87;26.07;;;;;;;;;;4995399;28;20233;-80
2023/10/19 06:15:25;;;;;;;28.93;26.37;;;;;;;;;;4990079;28;20225;-78
2023/10/19 06:17:51;;;;;;;29.97;25.83;;;;;;;;;;4987923;28;20671;-78
2023/10/19 06:20:34;;;;;;;29.63;26.50;;;;;;;;;;4983629;28;20209;-78
2023/10/19 06:23:08;;;;;;;26.87;24.00;;;;;;;;;;4948001;28;20224;-80
2023/10/19 06:25:39;;;;;;;26.63;24.13;;;;;;;;;;4980397;28;20221;-78
2023/10/19 06:28:05;;;;;;;28.53;25.93;;;;;;;;;;5004799;28;20238;-78
2023/10/19 06:30:35;;;;;;;27.23;24.63;;;;;;;;;;4976548;28;20244;-79
2023/10/19 06:33:01;;;;;;;26.00;23.47;;;;;;;;;;4961654;28;20229;-79
2023/10/19 06:35:31;;;;;;;25.40;22.97;;;;;;;;;;4965988;28;20218;-77
2023/10/19 06:38:00;;;;;;;26.70;24.30;;;;;;;;;;4956374;28;20241;-78
2023/10/19 06:40:28;;;;;;;27.63;24.90;;;;;;;;;;4996891;28;20236;-78
2023/10/19 06:42:58;;;;;;;26.43;24.10;;;;;;;;;;4989030;28;20268;-79
2023/10/19 06:45:25;;;;;;;27.23;24.53;;;;;;;;;;4960786;28;20281;-77
2023/10/19 06:47:53;;;;;;;26.50;23.80;;;;;;;;;;4988067;28;20245;-79
2023/10/19 06:50:22;;;;;;;25.33;22.93;;;;;;;;;;4955448;28;20489;-79
2023/10/19 06:52:54;;;;;;;25.30;22.63;;;;;;;;;;4990943;28;20221;-78
2023/10/19 06:55:20;;;;;;;24.80;22.57;;;;;;;;;;4965186;28;20224;-78
2023/10/19 06:57:47;;;;;;;24.83;22.53;;;;;;;;;;4979268;28;20231;-79
2023/10/19 07:00:26;;;;;;;25.93;23.30;;;;;;;;;;4964737;28;20920;-77
2023/10/19 07:02:55;;;;;;;26.10;23.70;;;;;;;;;;4989529;28;20690;-78
2023/10/19 07:05:22;;;;;;;25.47;23.07;;;;;;;;;;4943288;28;20281;-79
2023/10/19 07:07:59;;;;;;;26.07;23.67;;;;;;;;;;4946143;28;20267;-81
2023/10/19 07:10:32;;;;;;;26.40;23.73;;;;;;;;;;4976476;28;20217;-78
2023/10/19 07:12:59;;;;;;;27.00;24.50;;;;;;;;;;4981996;28;20230;-78
2023/10/19 07:15:29;;;;;;;25.97;23.67;;;;;;;;;;4996675;28;20688;-78
2023/10/19 07:17:58;;;;;;;25.97;23.43;;;;;;;;;;4961424;28;20256;-77
2023/10/19 07:20:28;;;;;;;25.30;22.70;;;;;;;;;;4990404;28;20226;-78
2023/10/19 07:23:26;;;;;;;24.83;22.50;;;;;;;;;;4966259;28;20251;-78
2023/10/19 07:25:59;;;;;;;22.60;20.47;;;;;;;;;;4999147;28;20225;-78
2023/10/19 07:28:32;;;;;;;24.57;22.23;;;;;;;;;;4951140;28;20284;-78
2023/10/19 07:31:00;;;;;;;24.90;22.43;;;;;;;;;;4973135;28;20245;-79
2023/10/19 07:33:26;;;;;;;25.03;22.57;;;;;;;;;;4978701;28;20248;-79
2023/10/19 07:35:54;;;;;;;22.33;20.33;;;;;;;;;;4974422;28;20224;-79
2023/10/19 07:38:26;;;;;;;23.73;21.10;;;;;;;;;;4983695;28;20217;-80
2023/10/19 07:40:54;;;;;;;22.00;20.00;;;;;;;;;;4961155;28;20320;-79
2023/10/19 07:43:20;;;;;;;22.63;20.40;;;;;;;;;;4977828;28;20205;-79
2023/10/19 07:45:48;;;;;;;22.53;20.33;;;;;;;;;;4975081;28;20217;-79
2023/10/19 07:48:14;;;;;;;22.00;20.00;;;;;;;;;;4958973;28;20247;-78
2023/10/19 07:50:42;;;;;;;21.83;19.73;;;;;;;;;;4975016;28;20280;-79
2023/10/19 07:53:09;;;;;;;22.37;20.27;;;;;;;;;;4972840;28;20233;-80
2023/10/19 07:55:57;;;;;;;20.80;18.97;;;;;;;;;;4975621;28;20362;-78
2023/10/19 07:58:23;;;;;;;20.77;18.93;;;;;;;;;;4998855;28;20263;-79
2023/10/19 08:00:49;;;;;;;20.40;18.30;;;;;;;;;;4972753;28;20248;-79
2023/10/19 08:03:16;;;;;;;19.53;17.73;;;;;;;;;;4968051;28;20230;-79
2023/10/19 08:05:49;;;;;;;20.47;18.60;;;;;;;;;;4989103;28;20240;-79
2023/10/19 08:08:17;;;;;;;19.30;17.47;;;;;;;;;;4978028;28;20321;-80
2023/10/19 08:10:42;;;;;;;19.90;18.10;;;;;;;;;;4983464;28;20253;-79
2023/10/19 08:13:12;;;;;;;18.77;16.90;;;;;;;;;;5005985;28;20218;-79
2023/10/19 08:15:40;;;;;;;18.73;17.00;;;;;;;;;;4990318;28;20260;-80
2023/10/19 08:18:05;;;;;;;19.93;18.13;;;;;;;;;;5001541;28;20247;-81
2023/10/19 08:20:31;;;;;;;18.93;17.23;;;;;;;;;;4997310;28;20213;-79
2023/10/19 08:23:01;;;;;;;18.33;16.63;;;;;;;;;;4990409;28;20216;-79
2023/10/19 08:25:32;;;;;;;18.90;17.00;;;;;;;;;;4995114;28;20558;-79
2023/10/19 08:27:58;;;;;;;18.97;17.27;;;;;;;;;;4989839;28;20222;-79
2023/10/19 08:30:23;;;;;;;19.47;17.67;;;;;;;;;;5012114;28;20281;-78
2023/10/19 08:32:49;;;;;;;21.27;19.20;;;;;;;;;;4982164;28;20214;-78
2023/10/19 08:35:20;;;;;;;21.33;18.93;;;;;;;;;;4989199;28;20224;-79
2023/10/19 08:37:48;;;;;;;18.07;16.47;;;;;;;;;;4968434;28;20324;-78
2023/10/19 08:40:17;;;;;;;19.63;17.93;;;;;;;;;;4981140;28;20222;-79
2023/10/19 08:42:46;;;;;;;22.43;17.67;;;;;;;;;;4976734;28;20257;-81
2023/10/19 08:45:12;;;;;;;20.70;18.80;;;;;;;;;;4996918;28;20640;-78
2023/10/19 08:48:04;;;;;;;21.97;19.93;;;;;;;;;;4979219;28;20298;-78
2023/10/19 08:50:31;;;;;;;20.70;18.70;;;;;;;;;;4974692;28;20226;-79
2023/10/19 08:52:58;;;;;;;21.67;19.77;;;;;;;;;;4946338;28;20233;-78
2023/10/19 08:55:24;;;;;;;22.50;20.20;;;;;;;;;;4957173;28;20233;-78
2023/10/19 08:57:50;;;;;;;20.80;18.90;;;;;;;;;;4965493;28;20222;-78
2023/10/19 09:00:24;;;;;;;22.00;20.00;;;;;;;;;;4965962;28;20233;-79
2023/10/19 09:02:59;;;;;;;22.80;20.80;;;;;;;;;;4961523;28;20222;-78
2023/10/19 09:05:30;;;;;;;22.20;20.17;;;;;;;;;;4996114;28;20221;-79
2023/10/19 09:07:55;;;;;;;22.37;20.27;;;;;;;;;;4993633;28;20229;-78
2023/10/19 09:10:25;;;;;;;23.03;20.83;;;;;;;;;;5003102;28;20236;-79
2023/10/19 09:13:08;;;;;;;23.23;21.03;;;;;;;;;;4970047;28;20220;-78
2023/10/19 09:15:39;;;;;;;22.10;20.10;;;;;;;;;;4991462;28;21173;-79
2023/10/19 09:18:15;;;;;;;22.37;20.20;;;;;;;;;;4957586;28;20219;-79
2023/10/19 09:20:53;;;;;;;22.30;20.20;;;;;;;;;;4994367;28;20630;-77
2023/10/19 09:23:27;;;;;;;23.50;21.30;;;;;;;;;;4988303;28;20251;-78
2023/10/19 09:26:12;;;;;;;22.47;20.50;;;;;;;;;;4980694;28;20241;-77
2023/10/19 09:28:39;;;;;;;22.13;20.27;;;;;;;;;;4960149;28;20221;-78
2023/10/19 09:31:16;;;;;;;23.27;20.97;;;;;;;;;;4998734;28;20279;-78
2023/10/19 09:33:44;;;;;;;22.30;20.23;;;;;;;;;;4992279;28;20260;-78
2023/10/19 09:36:13;;;;;;;22.80;20.80;;;;;;;;;;4977369;28;20247;-78
2023/10/19 09:38:43;;;;;;;23.70;21.47;;;;;;;;;;4973593;28;20960;-79
2023/10/19 09:41:09;;;;;;;23.10;21.10;;;;;;;;;;4963650;28;20635;-79
2023/10/19 09:43:38;;;;;;;23.47;21.30;;;;;;;;;;4964452;28;20359;-78
2023/10/19 09:46:12;;;;;;;25.07;22.80;;;;;;;;;;4992152;28;20242;-78
2023/10/19 09:48:45;;;;;;;23.40;21.40;;;;;;;;;;4967515;28;20243;-80
2023/10/19 09:51:11;;;;;;;25.80;23.40;;;;;;;;;;4964695;28;20220;-79
2023/10/19 09:53:37;;;;;;;24.97;22.67;;;;;;;;;;4963177;28;20221;-79
2023/10/19 09:56:06;;;;;;;25.37;23.07;;;;;;;;;;4966621;28;20615;-78
2023/10/19 09:58:53;;;;;;;25.83;23.43;;;;;;;;;;4981509;28;20313;-79
2023/10/19 10:01:21;;;;;;;25.67;23.13;;;;;;;;;;4974304;28;20229;-79
2023/10/19 10:03:53;;;;;;;25.90;23.17;;;;;;;;;;4982485;28;20307;-78
2023/10/19 10:06:27;;;;;;;25.53;23.13;;;;;;;;;;4965078;28;20249;-79
2023/10/19 10:08:56;;;;;;;25.50;22.97;;;;;;;;;;4997155;28;20227;-79
2023/10/19 10:11:22;;;;;;;25.60;23.20;;;;;;;;;;4999399;28;20222;-78
2023/10/19 10:13:51;;;;;;;25.90;23.40;;;;;;;;;;4970896;28;20253;-79
2023/10/19 10:16:26;;;;;;;25.30;23.00;;;;;;;;;;4968846;28;20222;-79
2023/10/19 10:18:55;;;;;;;24.90;22.60;;;;;;;;;;4955849;28;20229;-79
2023/10/19 10:21:21;;;;;;;24.10;21.67;;;;;;;;;;4964712;28;20721;-80
2023/10/19 10:23:53;;;;;;;24.60;22.37;;;;;;;;;;4973450;28;20230;-79
2023/10/19 10:26:24;;;;;;;25.00;22.77;;;;;;;;;;4988999;28;20570;-80
2023/10/19 10:29:23;;;;;;;24.80;22.50;;;;;;;;;;4964453;28;20296;-80
2023/10/19 10:31:49;;;;;;;24.77;22.33;;;;;;;;;;4977251;28;20863;-79
2023/10/19 10:34:33;;;;;;;24.37;22.20;;;;;;;;;;4981782;28;20743;-81
2023/10/19 10:37:08;;;;;;;23.40;21.30;;;;;;;;;;4996778;28;20669;-80
2023/10/19 10:39:37;;;;;;;23.03;21.00;;;;;;;;;;4962248;28;20597;-80
2023/10/19 10:42:06;;;;;;;24.03;21.80;;;;;;;;;;4962356;28;20237;-78
2023/10/19 10:44:40;;;;;;;23.70;21.43;;;;;;;;;;4964562;28;20718;-79
2023/10/19 10:47:20;;;;;;;23.47;21.33;;;;;;;;;;4997262;28;20290;-79
2023/10/19 10:49:52;;;;;;;21.47;19.47;;;;;;;;;;4966284;28;20221;-80
2023/10/19 10:52:36;;;;;;;23.43;21.33;;;;;;;;;;4992076;28;20311;-79
2023/10/19 10:55:14;;;;;;;22.83;20.63;;;;;;;;;;4979951;28;20285;-79
2023/10/19 10:57:43;;;;;;;22.83;20.77;;;;;;;;;;4977462;28;20244;-80
2023/10/19 11:00:15;;;;;;;21.87;19.87;;;;;;;;;;4993398;28;20224;-80
2023/10/19 11:02:45;;;;;;;23.53;21.33;;;;;;;;;;4997637;28;20231;-79
2023/10/19 11:05:14;;;;;;;23.60;21.27;;;;;;;;;;4963135;28;20283;-78
2023/10/19 11:07:40;;;;;;;22.43;20.43;;;;;;;;;;4996608;28;20227;-79
2023/10/19 11:10:09;;;;;;;22.43;20.30;;;;;;;;;;4987360;28;20239;-79
2023/10/19 11:12:38;;;;;;;22.13;20.13;;;;;;;;;;4959374;28;20602;-79
2023/10/19 11:15:09;;;;;;;23.47;21.30;;;;;;;;;;4992106;28;20236;-78
2023/10/19 11:17:45;;;;;;;20.30;18.43;;;;;;;;;;4982612;28;20221;-79
2023/10/19 11:20:20;;;;;;;20.47;18.73;;;;;;;;;;4970130;28;20308;-79
2023/10/19 11:22:50;;;;;;;21.63;19.53;;;;;;;;;;4959461;28;20233;-79
2023/10/19 11:25:28;;;;;;;21.27;19.43;;;;;;;;;;4944551;28;20252;-79
2023/10/19 11:27:57;;;;;;;21.87;19.87;;;;;;;;;;4993716;28;20221;-79
2023/10/19 11:30:28;;;;;;;22.33;20.23;;;;;;;;;;4994343;28;20221;-78
2023/10/19 11:32:59;;;;;;;21.80;19.90;;;;;;;;;;4981078;28;20268;-80
2023/10/19 11:35:30;;;;;;;22.27;20.27;;;;;;;;;;4994815;28;20272;-78
2023/10/19 11:38:00;;;;;;;22.10;20.07;;;;;;;;;;4993365;28;20264;-78
2023/10/19 11:40:26;;;;;;;21.70;19.70;;;;;;;;;;4979475;28;20333;-77
2023/10/19 11:43:00;;;;;;;21.27;19.30;;;;;;;;;;4980711;28;20316;-79
2023/10/19 11:45:26;;;;;;;22.17;20.23;;;;;;;;;;4998767;28;20238;-79
2023/10/19 11:47:55;;;;;;;20.90;19.20;;;;;;;;;;4981409;28;20608;-79
2023/10/19 11:50:20;;;;;;;22.83;20.70;;;;;;;;;;4990330;28;21049;-78
2023/10/19 11:52:48;;;;;;;22.33;20.23;;;;;;;;;;4983286;28;20274;-78
2023/10/19 11:55:21;;;;;;;22.57;20.47;;;;;;;;;;4979485;28;20724;-78
2023/10/19 11:57:46;;;;;;;23.90;21.67;;;;;;;;;;4995527;28;20250;-79
2023/10/19 12:00:21;;;;;;;22.30;20.33;;;;;;;;;;4966225;28;20236;-77
2023/10/19 12:02:49;;;;;;;23.87;21.43;;;;;;;;;;4995529;28;20229;-78
2023/10/19 12:05:15;;;;;;;23.37;21.33;;;;;;;;;;4965435;28;20698;-77
2023/10/19 12:07:41;;;;;;;23.03;21.03;;;;;;;;;;4997375;28;20241;-79
2023/10/19 12:10:08;;;;;;;22.50;20.50;;;;;;;;;;4996849;28;20218;-79
2023/10/19 12:12:36;;;;;;;23.80;21.77;;;;;;;;;;5015932;28;20236;-79
2023/10/19 12:15:04;;;;;;;24.70;22.50;;;;;;;;;;4964187;28;20253;-78
2023/10/19 12:17:30;;;;;;;23.53;21.53;;;;;;;;;;4957806;28;20222;-79
2023/10/19 12:19:58;;;;;;;23.90;21.43;;;;;;;;;;4976972;28;20225;-79
2023/10/19 12:22:28;;;;;;;22.30;20.27;;;;;;;;;;4970844;28;20766;-79
2023/10/19 12:24:54;;;;;;;23.90;21.70;;;;;;;;;;4966406;28;20256;-79
2023/10/19 12:27:24;;;;;;;23.80;21.60;;;;;;;;;;4966992;28;20236;-78
2023/10/19 12:29:50;;;;;;;24.30;22.20;;;;;;;;;;4986258;28;20221;-79
2023/10/19 12:32:16;;;;;;;24.20;22.10;;;;;;;;;;5001858;28;20229;-78
2023/10/19 12:34:44;;;;;;;23.20;21.10;;;;;;;;;;5000672;28;20264;-79
2023/10/19 12:37:12;;;;;;;23.03;20.93;;;;;;;;;;4999953;28;20305;-78
2023/10/19 12:39:44;;;;;;;23.40;21.17;;;;;;;;;;4962191;28;20252;-78
2023/10/19 12:42:14;;;;;;;21.90;20.00;;;;;;;;;;4977052;28;20233;-78
2023/10/19 12:44:40;;;;;;;21.80;19.87;;;;;;;;;;4994818;28;20726;-77
2023/10/19 12:47:12;;;;;;;21.07;19.10;;;;;;;;;;4970866;28;20217;-77
2023/10/19 12:49:39;;;;;;;23.07;20.73;;;;;;;;;;4981161;28;20926;-79
2023/10/19 12:52:07;;;;;;;22.13;19.93;;;;;;;;;;4983334;28;20218;-79
2023/10/19 12:54:34;;;;;;;20.47;18.67;;;;;;;;;;4951400;28;20226;-78
2023/10/19 12:57:00;;;;;;;22.43;20.37;;;;;;;;;;4998995;28;20275;-78
2023/10/19 12:59:28;;;;;;;22.77;20.67;;;;;;;;;;4996621;28;20712;-78
2023/10/19 13:01:57;;;;;;;21.70;19.77;;;;;;;;;;4983973;28;20217;-80
2023/10/19 13:04:24;;;;;;;21.63;19.73;;;;;;;;;;4980085;28;20228;-78
2023/10/19 13:06:57;;;;;;;21.50;19.70;;;;;;;;;;4996911;28;20233;-78
2023/10/19 13:09:32;;;;;;;21.50;19.67;;;;;;;;;;4973695;28;20257;-78
2023/10/19 13:11:58;;;;;;;21.47;19.77;;;;;;;;;;4993909;28;20741;-77
2023/10/19 13:14:25;;;;;;;19.93;18.17;;;;;;;;;;4993902;28;20247;-78
2023/10/19 13:16:55;;;;;;;21.97;20.07;;;;;;;;;;4961233;28;20221;-78
2023/10/19 13:19:25;;;;;;;22.33;20.43;;;;;;;;;;4947221;28;20236;-78
2023/10/19 13:21:58;;;;;;;22.27;20.27;;;;;;;;;;4973323;28;20209;-78
2023/10/19 13:24:26;;;;;;;23.13;20.87;;;;;;;;;;4992750;28;20229;-79
2023/10/19 13:26:53;;;;;;;21.70;19.80;;;;;;;;;;4976547;28;20229;-78
2023/10/19 13:29:22;;;;;;;20.93;19.13;;;;;;;;;;4990088;28;20695;-78
2023/10/19 13:31:52;;;;;;;21.47;19.47;;;;;;;;;;4996526;28;20228;-79
2023/10/19 13:34:17;;;;;;;20.37;18.47;;;;;;;;;;4997694;28;20226;-78
2023/10/19 13:36:44;;;;;;;21.17;19.00;;;;;;;;;;4990884;28;20267;-77
2023/10/19 13:39:16;;;;;;;20.40;18.60;;;;;;;;;;4963980;28;20239;-78
2023/10/19 13:41:41;;;;;;;19.23;17.63;;;;;;;;;;4993241;28;20233;-78
2023/10/19 13:44:07;;;;;;;19.43;17.73;;;;;;;;;;4995351;28;20269;-79
2023/10/19 13:46:35;;;;;;;18.03;16.43;;;;;;;;;;4988022;28;20736;-78
2023/10/19 13:49:03;;;;;;;17.67;16.17;;;;;;;;;;4984586;28;20316;-80
2023/10/19 13:51:29;;;;;;;17.30;15.80;;;;;;;;;;4979894;28;20232;-81
2023/10/19 13:53:54;;;;;;;18.43;16.80;;;;;;;;;;4993987;28;20244;-79
2023/10/19 13:56:22;;;;;;;17.17;15.67;;;;;;;;;;4991649;28;20595;-79
2023/10/19 13:58:47;;;;;;;16.83;15.20;;;;;;;;;;4979880;28;20275;-80
2023/10/19 14:01:13;;;;;;;17.23;15.83;;;;;;;;;;4959453;28;20234;-80
2023/10/19 14:03:46;;;;;;;17.47;15.70;;;;;;;;;;4963657;28;20754;-80
2023/10/19 14:06:13;;;;;;;16.07;14.63;;;;;;;;;;4980072;28;20254;-80
2023/10/19 14:08:38;;;;;;;15.73;14.43;;;;;;;;;;4961969;28;20228;-78
2023/10/19 14:11:04;;;;;;;16.50;15.17;;;;;;;;;;4996928;28;20214;-79
2023/10/19 14:13:30;;;;;;;17.27;15.70;;;;;;;;;;4997234;28;20235;-78
2023/10/19 14:15:57;;;;;;;17.37;15.47;;;;;;;;;;4991706;28;20224;-78
2023/10/19 14:18:26;;;;;;;16.83;15.33;;;;;;;;;;4982356;28;20217;-78
2023/10/19 14:20:52;;;;;;;16.50;14.80;;;;;;;;;;4977852;28;20261;-78
2023/10/19 14:23:20;;;;;;;15.37;13.93;;;;;;;;;;4994135;28;20567;-78
2023/10/19 14:25:46;;;;;;;15.80;14.30;;;;;;;;;;4995564;28;21010;-77
2023/10/19 14:28:14;;;;;;;15.47;14.17;;;;;;;;;;4991579;28;20690;-79
2023/10/19 14:30:40;;;;;;;15.57;14.20;;;;;;;;;;5004317;28;20229;-78
2023/10/19 14:33:10;;;;;;;15.60;14.10;;;;;;;;;;4972559;28;20866;-78
2023/10/19 14:35:47;;;;;;;15.43;14.10;;;;;;;;;;4962686;28;20233;-79
2023/10/19 14:38:14;;;;;;;14.77;13.43;;;;;;;;;;4985497;28;20303;-80
2023/10/19 14:40:48;;;;;;;14.70;13.43;;;;;;;;;;4975285;28;20672;-80
2023/10/19 14:43:19;;;;;;;14.33;13.13;;;;;;;;;;4994871;28;20613;-80
2023/10/19 14:45:45;;;;;;;14.17;13.07;;;;;;;;;;4980278;28;20291;-79
2023/10/19 14:48:11;;;;;;;15.13;13.83;;;;;;;;;;4990234;28;20222;-79
2023/10/19 14:50:37;;;;;;;14.67;13.27;;;;;;;;;;4979093;28;20234;-78